Flight Track Log - Related Links

Times and Time Zones

All times are in EDT time to prevent confusion due to time zone crossing. See the AAY846 flight status page for this flight to view local times or setup timezone preferences in your user account.

Time Position Orientation Groundspeed Altitude Reporting Facility
EDT Latitude Longitude Course Direction KTS MPH feet Rate Location/Type
08:23AM 27.9000 -82.6833 180° South 156 180 600  Level Tampa TRACON
08:24AM 27.8667 -82.6833 180° South 159 183 2,300 1,738 Climbing Tampa TRACON
08:26AM 27.9008 -82.7158 320° Northwest 160 184 4,800 1,434 Climbing Miami Center
08:27AM 27.9581 -82.7194 357° North 198 228 6,100 1,463 Climbing Miami Center
08:28AM 28.0294 -82.7256 356° North 255 293 7,800 2,066 Climbing Miami Center
08:29AM 28.1094 -82.7300 357° North 281 323 10,300 2,084 Climbing Miami Center
08:34AM 28.6588 -82.9139 342° North 404 465 21,100 1,842 Climbing FlightAware ADS-B
08:35AM 28.7311 -82.9383 342° North 397 457 21,600 1,009 Climbing Miami Center
08:36AM 28.8417 -82.9781 343° North 410 472 22,900 1,268 Climbing Miami Center
08:37AM 28.9414 -83.0486 328° Northwest 423 487 24,200 1,317 Climbing Miami Center
08:38AM 29.0397 -83.1264 325° Northwest 426 490 25,600 1,279 Climbing Miami Center
08:39AM 29.1386 -83.2058 325° Northwest 429 494 26,800 1,122 Climbing Miami Center
08:40AM 29.2403 -83.2886 325° Northwest 439 505 27,900 1,073 Climbing Miami Center
08:41AM 29.3442 -83.3733 325° Northwest 449 517 29,000 1,082 Climbing Miami Center
08:42AM 29.4708 -83.4758 325° Northwest 456 525 30,100 993 Climbing Miami Center
08:48AM 30.0977 -83.9916 324° Northwest 454 522 36,000 859 Climbing FlightAware ADS-B (KONZ)
08:49AM 30.1823 -84.0617 324° Northwest 455 524 36,000  Level FlightAware ADS-B (KONZ)
08:49AM 30.2386 -84.1083 324° Northwest 454 522 36,000  Level FlightAware ADS-B (KONZ)
08:50AM 30.3029 -84.1619 324° Northwest 453 521 36,000  Level FlightAware ADS-B (KONZ)
08:51AM 30.3739 -84.2210 324° Northwest 453 521 36,000  Level FlightAware ADS-B (KONZ)
08:51AM 30.4271 -84.2654 324° Northwest 453 521 36,000  Level FlightAware ADS-B (KONZ)
08:52AM 30.4773 -84.3072 325° Northwest 454 522 36,000  Level FlightAware ADS-B (KONZ)
08:53AM 30.5424 -84.3532 335° Northwest 459 528 36,000  Level FlightAware ADS-B (KONZ)
08:53AM 30.6166 -84.3874 339° North 460 529 36,000  Level FlightAware ADS-B (KONZ)
08:54AM 30.6919 -84.4206 339° North 459 528 36,000  Level FlightAware ADS-B (KONZ)
08:54AM 30.7514 -84.4468 339° North 459 528 36,000  Level FlightAware ADS-B (KONZ)
08:55AM 30.8268 -84.4799 339° North 457 526 36,000  Level FlightAware ADS-B (KONZ)
08:55AM 30.8898 -84.5073 339° North 456 525 36,000  Level FlightAware ADS-B (KONZ)
08:56AM 30.9405 -84.5296 339° North 456 525 36,000  Level FlightAware ADS-B (KONZ)
08:56AM 31.0271 -84.5677 339° North 454 522 36,000  Level FlightAware ADS-B (KONZ)
08:57AM 31.0986 -84.5981 339° North 450 518 36,000  Level Jacksonville Center
08:59AM 31.3128 -84.6950 339° North 451 519 36,000  Level Atlanta Center
09:00AM 31.4294 -84.7494 338° Northwest 446 513 36,000  Level Atlanta Center
09:01AM 31.5461 -84.7992 340° North 446 513 36,000  Level Atlanta Center
09:02AM 31.6667 -84.8539 339° North 451 519 36,000  Level Atlanta Center
09:03AM 31.7708 -84.8986 340° North 451 519 36,000  Level Atlanta Center
09:04AM 31.8894 -84.9561 338° Northwest 451 519 36,000  Level Atlanta Center
09:05AM 32.0078 -85.0064 340° North 451 519 36,000  Level Atlanta Center
09:06AM 32.1264 -85.0592 339° North 451 519 36,000  Level Atlanta Center
09:07AM 32.2553 -85.1147 340° North 446 513 36,000  Level Atlanta Center
09:08AM 32.3739 -85.1678 339° North 446 513 36,000  Level Atlanta Center
09:09AM 32.4903 -85.2183 340° North 446 513 36,000  Level Atlanta Center
09:10AM 32.6047 -85.2717 339° North 446 513 36,000  Level Atlanta Center
09:11AM 32.7250 -85.3253 339° North 455 524 36,000  Level Atlanta Center
09:12AM 32.8436 -85.3814 338° Northwest 448 516 36,000  Level Atlanta Center
09:13AM 32.9597 -85.4350 339° North 448 516 36,000  Level Atlanta Center
09:14AM 33.0761 -85.4892 339° North 448 516 36,000 16 Level Atlanta Center
09:19AM 33.7252 -85.7924 339° North 451 519 36,100  Climbing FlightAware ADS-B (KMDQ)
09:20AM 33.8044 -85.8295 339° North 447 514 36,000 -74 Descending FlightAware ADS-B (KMDQ)
09:21AM 33.8803 -85.8653 339° North 444 511 36,000  Level FlightAware ADS-B (KMDQ)
09:21AM 33.9521 -85.8992 339° North 444 511 36,000  Level FlightAware ADS-B (KMDQ)
09:22AM 34.0366 -85.9391 339° North 447 514 36,000  Level FlightAware ADS-B (KMDQ)
09:23AM 34.1141 -85.9758 339° North 449 517 36,000  Level FlightAware ADS-B (KMDQ)
09:23AM 34.1920 -86.0127 339° North 451 519 36,000  Level FlightAware ADS-B (KMDQ)
09:24AM 34.2665 -86.0482 339° North 451 519 36,000 76 Level FlightAware ADS-B (KMDQ)
09:25AM 34.3458 -86.0858 339° North 450 518 36,100 75 Climbing FlightAware ADS-B (KMDQ)
09:25AM 34.4212 -86.1217 338° Northwest 448 516 36,100 -76 Level FlightAware ADS-B (KMDQ)
09:26AM 34.4995 -86.1591 338° Northwest 446 513 36,000 -77 Descending FlightAware ADS-B (KMDQ)
09:27AM 34.5726 -86.1941 338° Northwest 446 513 36,000  Level FlightAware ADS-B (KMDQ)
09:27AM 34.6564 -86.2343 338° Northwest 446 513 36,000  Level FlightAware ADS-B (KMDQ)
09:28AM 34.7325 -86.2709 338° Northwest 445 512 36,000  Level FlightAware ADS-B (KMDQ)
09:30AM 34.8777 -86.3408 346° North 447 514 36,000  Level FlightAware ADS-B (KMDQ)
09:30AM 34.9752 -86.3723 348° North 445 512 36,000 78 Level FlightAware ADS-B (KMDQ)
09:31AM 35.0814 -86.4006 347° North 442 509 36,100  Climbing FlightAware ADS-B (KMDQ)
09:32AM 35.1405 -86.4170 347° North 441 507 36,000 -74 Descending FlightAware ADS-B (KMDQ)
09:32AM 35.2393 -86.4449 347° North 442 509 36,000  Level FlightAware ADS-B (KMDQ)
09:33AM 35.3249 -86.4695 346° North 443 510 36,000  Level FlightAware ADS-B (KMDQ)
09:34AM 35.4036 -86.4931 346° North 445 512 36,000  Level FlightAware ADS-B (KMDQ)
09:34AM 35.4814 -86.5172 346° North 447 514 36,000  Level FlightAware ADS-B (KMDQ)
09:35AM 35.5602 -86.5416 346° North 447 514 36,000 78 Level FlightAware ADS-B (KMDQ)
09:36AM 35.6412 -86.5671 346° North 444 511 36,100  Climbing FlightAware ADS-B (KMDQ)
09:36AM 35.7065 -86.5876 346° North 440 506 36,000 -58 Descending FlightAware ADS-B (KMDQ)
09:37AM 35.8435 -86.6300 346° North 438 504 36,000  Level FlightAware ADS-B (KMDQ)
09:38AM 35.9182 -86.6528 346° North 435 501 36,000  Level FlightAware ADS-B (KMDQ)
09:39AM 35.9872 -86.6839 334° Northwest 435 501 36,000  Level FlightAware ADS-B (KMDQ)
09:40AM 36.1044 -86.7548 334° Northwest 437 503 36,000  Level FlightAware ADS-B (KMDQ)
09:40AM 36.1739 -86.7967 334° Northwest 438 504 36,000  Level FlightAware ADS-B (KMDQ)
09:41AM 36.2501 -86.8425 334° Northwest 437 503 36,000  Level FlightAware ADS-B (KMDQ)
09:42AM 36.3251 -86.8877 334° Northwest 437 503 36,000  Level FlightAware ADS-B (KMDQ)
09:42AM 36.3897 -86.9269 334° Northwest 435 501 36,000  Level FlightAware ADS-B (KMDQ)
09:43AM 36.4580 -86.9682 334° Northwest 435 501 36,000  Level FlightAware ADS-B
09:44AM 36.5147 -87.0028 334° Northwest 436 502 36,000  Level Kansas City Center
09:45AM 36.6100 -87.0614 334° Northwest 439 505 36,000  Level Indianapolis Center
09:50AM 37.2366 -87.4462 334° Northwest 426 490 36,000  Level FlightAware ADS-B
09:51AM 37.2908 -87.4800 334° Northwest 425 489 36,000  Level Kansas City Center
09:52AM 37.3844 -87.5378 334° Northwest 428 493 36,000 57 Level Indianapolis Center
09:53AM 37.5003 -87.5783 344° North 428 493 36,100  Climbing Indianapolis Center
09:54AM 37.6156 -87.6181 345° North 428 493 36,000 -98 Descending Indianapolis Center
09:55AM 37.7311 -87.6594 344° North 428 493 35,900  Descending Indianapolis Center
09:56AM 37.8336 -87.7169 336° Northwest 428 493 36,000 48 Climbing Indianapolis Center
09:57AM 37.9450 -87.7789 336° Northwest 431 496 36,000  Level Indianapolis Center
09:58AM 38.0742 -87.8681 331° Northwest 433 498 36,000 -195 Level Indianapolis Center
09:59AM 38.1839 -87.9422 332° Northwest 439 505 35,600 -683 Descending Indianapolis Center
10:00AM 38.2908 -88.0142 332° Northwest 438 504 34,600 -774 Descending Indianapolis Center
10:01AM 38.3986 -88.0878 332° Northwest 438 504 34,000 -290 Descending Indianapolis Center
10:02AM 38.5069 -88.1619 332° Northwest 438 504 34,000  Level Indianapolis Center
10:03AM 38.6158 -88.2364 332° Northwest 438 504 34,000  Level Indianapolis Center
10:04AM 38.7258 -88.3117 332° Northwest 440 506 34,000  Level Indianapolis Center
10:05AM 38.8353 -88.3867 332° Northwest 441 507 34,000  Level Indianapolis Center
10:06AM 38.9428 -88.4619 331° Northwest 441 507 34,000  Level Indianapolis Center
10:07AM 39.0719 -88.5525 331° Northwest 439 505 34,000 -1,220 Level Indianapolis Center
10:08AM 39.1833 -88.6281 332° Northwest 444 511 31,500 -2,516 Descending Indianapolis Center
10:09AM 39.2917 -88.7064 331° Northwest 445 512 28,800 -2,468 Descending Indianapolis Center
10:10AM 39.3964 -88.7797 332° Northwest 434 499 26,400 -2,195 Descending Indianapolis Center
10:11AM 39.4961 -88.8492 332° Northwest 415 478 24,300 -2,000 Descending Indianapolis Center
10:12AM 39.5694 -88.9025 331° Northwest 398 458 22,700 -1,778 Descending Chicago Center
10:13AM 39.6058 -88.9289 331° Northwest 391 450 21,900 -1,957 Descending Kansas City Center
10:14AM 39.7144 -89.0042 332° Northwest 375 432 19,700 -1,967 Descending Kansas City Center
10:15AM 39.8022 -89.0683 331° Northwest 365 420 17,900 -1,721 Descending Kansas City Center
10:16AM 39.8903 -89.1303 332° Northwest 364 419 16,200 -1,645 Descending Kansas City Center
10:17AM 39.9753 -89.1906 331° Northwest 354 407 14,500 -1,632 Descending Kansas City Center
10:18AM 40.0594 -89.2511 331° Northwest 349 402 12,800 -1,623 Descending Kansas City Center
10:19AM 40.1411 -89.3108 331° Northwest 342 394 11,200 -1,648 Descending Kansas City Center
10:19AM 40.1889 -89.3469 330° Northwest 338 389 10,300 -1,032 Descending Chicago Center
10:20AM 40.2642 -89.4006 331° Northwest 318 366 9,600 -919 Descending Chicago Center
10:21AM 40.3322 -89.4500 331° Northwest 290 334 8,400 -1,366 Descending Chicago Center
10:22AM 40.4006 -89.4994 331° Northwest 286 329 6,800 -1,756 Descending Chicago Center
10:23AM 40.4669 -89.5481 331° Northwest 278 320 4,800 -1,984 Descending Chicago Center
10:24AM 40.5358 -89.6269 319° Northwest 276 318 2,700 -1,122 Descending Chicago Center
10:25AM 40.5836 -89.7017 310° West 274 315 2,500 -98 Descending Chicago Center
10:26AM 40.6247 -89.7619 312° West 244 281 2,500 49 Level Chicago Center
10:27AM 40.6600 -89.8161 311° West 214 246 2,600 49 Climbing Chicago Center
10:29AM 40.7067 -89.8358 342° North 210 242 2,600 -290 Level Chicago Center
10:30AM 40.7119 -89.7814 83° East 175 201 2,000 -634 Descending Chicago Center
10:31AM 40.6900 -89.7411 126° Southeast 147 169 1,300 -683 Descending Chicago Center
10:32AM 40.6644 -89.6983 128° Southeast 133 153 600 -293 Descending Chicago Center
10:33AM 40.6614 -89.6886 113° Southeast 66 76 700 98 Climbing Chicago Center

Login

Don't have an account? Register now (free) for customized features, flight alerts, and more!